sensor_id;sensor_type;location;lat;lon;timestamp;pressure;altitude;pressure_sealevel;temperature;humidity
84108;BME280;74203;50.730;1.626;2023-11-21T00:02:01;100160.25;;;11.19;85.83
84108;BME280;74203;50.730;1.626;2023-11-21T00:04:09;100165.03;;;11.10;85.49
84108;BME280;74203;50.730;1.626;2023-11-21T00:06:16;100171.59;;;10.89;86.78
84108;BME280;74203;50.730;1.626;2023-11-21T00:08:24;100180.16;;;11.25;86.02
84108;BME280;74203;50.730;1.626;2023-11-21T00:10:31;100173.03;;;11.30;85.89
84108;BME280;74203;50.730;1.626;2023-11-21T00:12:39;100174.28;;;11.34;85.33
84108;BME280;74203;50.730;1.626;2023-11-21T00:14:46;100178.88;;;11.27;86.03
84108;BME280;74203;50.730;1.626;2023-11-21T00:16:53;100173.63;;;11.01;86.78
84108;BME280;74203;50.730;1.626;2023-11-21T00:19:00;100167.84;;;10.90;87.34
84108;BME280;74203;50.730;1.626;2023-11-21T00:21:08;100170.62;;;11.15;86.88
84108;BME280;74203;50.730;1.626;2023-11-21T00:23:16;100175.59;;;11.25;86.63
84108;BME280;74203;50.730;1.626;2023-11-21T00:25:23;100172.09;;;11.18;86.70
84108;BME280;74203;50.730;1.626;2023-11-21T00:27:30;100169.03;;;11.08;87.09
84108;BME280;74203;50.730;1.626;2023-11-21T00:29:38;100177.38;;;11.00;86.93
84108;BME280;74203;50.730;1.626;2023-11-21T00:31:45;100176.56;;;10.99;86.83
84108;BME280;74203;50.730;1.626;2023-11-21T00:33:52;100180.44;;;10.65;87.85
84108;BME280;74203;50.730;1.626;2023-11-21T00:36:00;100185.00;;;10.71;87.50
84108;BME280;74203;50.730;1.626;2023-11-21T00:38:07;100185.31;;;10.88;87.11
84108;BME280;74203;50.730;1.626;2023-11-21T00:40:16;100193.25;;;10.76;87.46
84108;BME280;74203;50.730;1.626;2023-11-21T00:42:23;100185.94;;;10.90;87.21
84108;BME280;74203;50.730;1.626;2023-11-21T00:44:31;100195.66;;;11.04;86.57
84108;BME280;74203;50.730;1.626;2023-11-21T00:46:38;100191.12;;;10.91;87.11
84108;BME280;74203;50.730;1.626;2023-11-21T00:48:45;100192.34;;;10.96;86.92
84108;BME280;74203;50.730;1.626;2023-11-21T00:50:53;100194.66;;;10.92;87.28
84108;BME280;74203;50.730;1.626;2023-11-21T00:53:01;100188.06;;;10.75;88.17
84108;BME280;74203;50.730;1.626;2023-11-21T00:55:10;100189.03;;;10.93;87.67
84108;BME280;74203;50.730;1.626;2023-11-21T00:57:17;100194.31;;;11.20;86.50
84108;BME280;74203;50.730;1.626;2023-11-21T00:59:25;100201.19;;;11.16;86.24
84108;BME280;74203;50.730;1.626;2023-11-21T01:01:32;100195.44;;;11.06;86.41
84108;BME280;74203;50.730;1.626;2023-11-21T01:03:40;100194.00;;;10.97;86.65
84108;BME280;74203;50.730;1.626;2023-11-21T01:05:47;100195.69;;;10.98;86.97
84108;BME280;74203;50.730;1.626;2023-11-21T01:07:55;100207.50;;;10.97;86.95
84108;BME280;74203;50.730;1.626;2023-11-21T01:10:02;100207.56;;;10.83;87.45
84108;BME280;74203;50.730;1.626;2023-11-21T01:12:10;100204.69;;;10.78;87.54
84108;BME280;74203;50.730;1.626;2023-11-21T01:14:18;100206.66;;;11.03;86.96
84108;BME280;74203;50.730;1.626;2023-11-21T01:16:25;100214.19;;;10.87;87.08
84108;BME280;74203;50.730;1.626;2023-11-21T01:18:32;100212.09;;;10.89;87.68
84108;BME280;74203;50.730;1.626;2023-11-21T01:20:40;100217.34;;;10.84;87.58
84108;BME280;74203;50.730;1.626;2023-11-21T01:22:47;100205.28;;;10.87;87.77
84108;BME280;74203;50.730;1.626;2023-11-21T01:24:55;100216.06;;;10.93;87.23
84108;BME280;74203;50.730;1.626;2023-11-21T01:27:02;100214.38;;;10.99;87.50
84108;BME280;74203;50.730;1.626;2023-11-21T01:29:09;100217.16;;;10.79;87.97
84108;BME280;74203;50.730;1.626;2023-11-21T01:31:17;100225.22;;;10.86;87.17
84108;BME280;74203;50.730;1.626;2023-11-21T01:33:24;100220.41;;;10.94;87.15
84108;BME280;74203;50.730;1.626;2023-11-21T01:35:32;100231.81;;;10.97;87.01
84108;BME280;74203;50.730;1.626;2023-11-21T01:37:40;100224.72;;;11.02;86.66
84108;BME280;74203;50.730;1.626;2023-11-21T01:39:47;100231.44;;;10.93;86.84
84108;BME280;74203;50.730;1.626;2023-11-21T01:41:55;100233.09;;;10.87;86.99
84108;BME280;74203;50.730;1.626;2023-11-21T01:44:02;100237.63;;;11.00;86.09
84108;BME280;74203;50.730;1.626;2023-11-21T01:46:10;100248.09;;;10.70;87.07
84108;BME280;74203;50.730;1.626;2023-11-21T01:48:18;100239.00;;;10.64;87.37
84108;BME280;74203;50.730;1.626;2023-11-21T01:50:27;100245.75;;;10.93;86.32
84108;BME280;74203;50.730;1.626;2023-11-21T01:52:35;100243.09;;;10.87;86.45
84108;BME280;74203;50.730;1.626;2023-11-21T01:54:44;100248.25;;;10.95;86.89
84108;BME280;74203;50.730;1.626;2023-11-21T01:56:52;100247.22;;;10.89;86.71
84108;BME280;74203;50.730;1.626;2023-11-21T01:58:59;100247.59;;;11.00;86.87
84108;BME280;74203;50.730;1.626;2023-11-21T02:01:07;100258.50;;;10.73;87.79
84108;BME280;74203;50.730;1.626;2023-11-21T02:03:15;100259.91;;;10.82;87.85
84108;BME280;74203;50.730;1.626;2023-11-21T02:05:22;100252.22;;;10.86;87.48
84108;BME280;74203;50.730;1.626;2023-11-21T02:07:30;100252.78;;;11.08;87.26
84108;BME280;74203;50.730;1.626;2023-11-21T02:09:37;100269.81;;;11.02;86.53
84108;BME280;74203;50.730;1.626;2023-11-21T02:11:44;100270.25;;;10.99;86.42
84108;BME280;74203;50.730;1.626;2023-11-21T02:13:52;100265.47;;;11.01;86.99
84108;BME280;74203;50.730;1.626;2023-11-21T02:15:59;100266.31;;;10.94;86.81
84108;BME280;74203;50.730;1.626;2023-11-21T02:18:07;100267.94;;;11.09;86.65
84108;BME280;74203;50.730;1.626;2023-11-21T02:20:15;100269.19;;;11.06;86.46
84108;BME280;74203;50.730;1.626;2023-11-21T02:22:24;100257.50;;;11.19;86.20
84108;BME280;74203;50.730;1.626;2023-11-21T02:24:34;100266.66;;;11.18;86.24
84108;BME280;74203;50.730;1.626;2023-11-21T02:26:41;100269.59;;;11.03;86.43
84108;BME280;74203;50.730;1.626;2023-11-21T02:28:49;100270.91;;;10.94;86.64
84108;BME280;74203;50.730;1.626;2023-11-21T02:30:56;100264.19;;;11.03;86.70
84108;BME280;74203;50.730;1.626;2023-11-21T02:33:04;100271.69;;;11.08;86.58
84108;BME280;74203;50.730;1.626;2023-11-21T02:35:12;100276.22;;;11.14;86.40
84108;BME280;74203;50.730;1.626;2023-11-21T02:37:19;100278.50;;;11.17;86.09
84108;BME280;74203;50.730;1.626;2023-11-21T02:39:27;100287.72;;;10.89;86.77
84108;BME280;74203;50.730;1.626;2023-11-21T02:41:34;100283.78;;;10.92;87.28
84108;BME280;74203;50.730;1.626;2023-11-21T02:43:41;100284.72;;;11.17;87.21
84108;BME280;74203;50.730;1.626;2023-11-21T02:45:49;100278.28;;;11.25;86.36
84108;BME280;74203;50.730;1.626;2023-11-21T02:47:56;100280.06;;;10.86;87.45
84108;BME280;74203;50.730;1.626;2023-11-21T02:50:04;100284.84;;;10.84;87.80
84108;BME280;74203;50.730;1.626;2023-11-21T02:52:12;100283.81;;;10.85;87.63
84108;BME280;74203;50.730;1.626;2023-11-21T02:54:19;100287.53;;;10.98;87.78
84108;BME280;74203;50.730;1.626;2023-11-21T02:56:27;100280.81;;;11.07;86.84
84108;BME280;74203;50.730;1.626;2023-11-21T02:58:35;100279.56;;;11.09;87.41
84108;BME280;74203;50.730;1.626;2023-11-21T03:00:42;100288.69;;;11.15;86.78
84108;BME280;74203;50.730;1.626;2023-11-21T03:02:49;100289.72;;;11.20;86.78
84108;BME280;74203;50.730;1.626;2023-11-21T03:04:56;100284.09;;;11.22;86.41
84108;BME280;74203;50.730;1.626;2023-11-21T03:07:04;100283.12;;;11.03;86.69
84108;BME280;74203;50.730;1.626;2023-11-21T03:09:11;100293.34;;;10.94;86.87
84108;BME280;74203;50.730;1.626;2023-11-21T03:11:18;100297.63;;;11.15;86.34
84108;BME280;74203;50.730;1.626;2023-11-21T03:13:26;100301.22;;;10.96;86.54
84108;BME280;74203;50.730;1.626;2023-11-21T03:15:33;100298.75;;;10.88;86.80
84108;BME280;74203;50.730;1.626;2023-11-21T03:17:40;100299.78;;;10.93;86.51
84108;BME280;74203;50.730;1.626;2023-11-21T03:19:47;100300.63;;;10.87;86.33
84108;BME280;74203;50.730;1.626;2023-11-21T03:21:55;100299.97;;;10.99;86.34
84108;BME280;74203;50.730;1.626;2023-11-21T03:24:02;100293.50;;;11.13;85.89
84108;BME280;74203;50.730;1.626;2023-11-21T03:26:14;100295.91;;;11.28;85.45
84108;BME280;74203;50.730;1.626;2023-11-21T03:28:21;100291.84;;;11.05;85.87
84108;BME280;74203;50.730;1.626;2023-11-21T03:30:28;100296.25;;;10.93;86.51
84108;BME280;74203;50.730;1.626;2023-11-21T03:32:36;100307.44;;;10.97;86.22
84108;BME280;74203;50.730;1.626;2023-11-21T03:34:58;100308.69;;;11.01;86.07
84108;BME280;74203;50.730;1.626;2023-11-21T03:37:06;100310.53;;;11.07;85.92
84108;BME280;74203;50.730;1.626;2023-11-21T03:39:13;100313.31;;;10.87;86.93
84108;BME280;74203;50.730;1.626;2023-11-21T03:41:21;100310.97;;;10.97;86.95
84108;BME280;74203;50.730;1.626;2023-11-21T03:43:28;100321.94;;;11.15;86.32
84108;BME280;74203;50.730;1.626;2023-11-21T03:45:36;100311.53;;;11.26;85.93
84108;BME280;74203;50.730;1.626;2023-11-21T03:47:44;100329.47;;;11.07;86.55
84108;BME280;74203;50.730;1.626;2023-11-21T03:49:51;100327.00;;;10.99;87.70
84108;BME280;74203;50.730;1.626;2023-11-21T03:51:59;100329.91;;;10.90;88.00
84108;BME280;74203;50.730;1.626;2023-11-21T03:54:07;100328.03;;;10.98;87.70
84108;BME280;74203;50.730;1.626;2023-11-21T03:56:16;100328.03;;;10.98;87.83
84108;BME280;74203;50.730;1.626;2023-11-21T03:58:23;100336.97;;;10.98;87.35
84108;BME280;74203;50.730;1.626;2023-11-21T04:00:31;100331.16;;;10.81;88.20
84108;BME280;74203;50.730;1.626;2023-11-21T04:02:38;100337.56;;;11.07;87.05
84108;BME280;74203;50.730;1.626;2023-11-21T04:04:45;100346.53;;;10.87;87.31
84108;BME280;74203;50.730;1.626;2023-11-21T04:06:53;100344.44;;;10.96;86.41
84108;BME280;74203;50.730;1.626;2023-11-21T04:09:00;100344.03;;;10.92;86.11
84108;BME280;74203;50.730;1.626;2023-11-21T04:11:08;100344.88;;;10.86;86.31
84108;BME280;74203;50.730;1.626;2023-11-21T04:13:15;100354.81;;;11.06;86.07
84108;BME280;74203;50.730;1.626;2023-11-21T04:15:23;100356.69;;;11.05;86.16
84108;BME280;74203;50.730;1.626;2023-11-21T04:17:31;100359.81;;;10.96;85.69
84108;BME280;74203;50.730;1.626;2023-11-21T04:19:38;100362.87;;;11.19;85.47
84108;BME280;74203;50.730;1.626;2023-11-21T04:21:46;100365.97;;;11.23;84.85
84108;BME280;74203;50.730;1.626;2023-11-21T04:23:53;100367.22;;;11.33;84.65
84108;BME280;74203;50.730;1.626;2023-11-21T04:26:00;100373.25;;;11.22;84.87
84108;BME280;74203;50.730;1.626;2023-11-21T04:28:08;100368.53;;;11.11;84.81
84108;BME280;74203;50.730;1.626;2023-11-21T04:30:17;100373.72;;;11.06;85.54
84108;BME280;74203;50.730;1.626;2023-11-21T04:32:25;100383.72;;;10.99;84.81
84108;BME280;74203;50.730;1.626;2023-11-21T04:34:32;100371.03;;;10.99;85.01
84108;BME280;74203;50.730;1.626;2023-11-21T04:36:40;100381.19;;;10.97;84.23
84108;BME280;74203;50.730;1.626;2023-11-21T04:38:47;100378.94;;;10.81;84.79
84108;BME280;74203;50.730;1.626;2023-11-21T04:40:55;100386.84;;;10.82;84.04
84108;BME280;74203;50.730;1.626;2023-11-21T04:43:02;100384.31;;;11.01;84.12
84108;BME280;74203;50.730;1.626;2023-11-21T04:45:11;100392.87;;;10.78;85.43
84108;BME280;74203;50.730;1.626;2023-11-21T04:47:18;100394.72;;;10.90;86.04
84108;BME280;74203;50.730;1.626;2023-11-21T04:49:25;100399.28;;;10.77;87.92
84108;BME280;74203;50.730;1.626;2023-11-21T04:51:33;100404.69;;;10.83;88.67
84108;BME280;74203;50.730;1.626;2023-11-21T04:53:40;100405.94;;;10.94;88.40
84108;BME280;74203;50.730;1.626;2023-11-21T04:55:48;100398.91;;;10.86;88.62
84108;BME280;74203;50.730;1.626;2023-11-21T04:57:55;100405.50;;;10.90;88.24
84108;BME280;74203;50.730;1.626;2023-11-21T05:00:03;100411.56;;;10.79;88.26
84108;BME280;74203;50.730;1.626;2023-11-21T05:02:11;100416.75;;;10.54;88.84
84108;BME280;74203;50.730;1.626;2023-11-21T05:04:18;100411.34;;;10.61;88.66
84108;BME280;74203;50.730;1.626;2023-11-21T05:06:26;100419.25;;;10.69;88.07
84108;BME280;74203;50.730;1.626;2023-11-21T05:08:33;100422.16;;;10.74;87.74
84108;BME280;74203;50.730;1.626;2023-11-21T05:10:40;100427.16;;;10.71;87.48
84108;BME280;74203;50.730;1.626;2023-11-21T05:12:48;100434.00;;;10.60;88.91
84108;BME280;74203;50.730;1.626;2023-11-21T05:14:55;100425.06;;;10.66;88.67
84108;BME280;74203;50.730;1.626;2023-11-21T05:17:03;100430.47;;;10.79;87.71
84108;BME280;74203;50.730;1.626;2023-11-21T05:19:10;100427.97;;;10.71;87.92
84108;BME280;74203;50.730;1.626;2023-11-21T05:21:18;100426.50;;;10.49;88.77
84108;BME280;74203;50.730;1.626;2023-11-21T05:23:25;100426.72;;;10.54;88.28
84108;BME280;74203;50.730;1.626;2023-11-21T05:25:33;100432.53;;;10.51;88.84
84108;BME280;74203;50.730;1.626;2023-11-21T05:27:40;100440.44;;;10.59;88.66
84108;BME280;74203;50.730;1.626;2023-11-21T05:29:47;100434.59;;;10.62;88.41
84108;BME280;74203;50.730;1.626;2023-11-21T05:31:55;100441.66;;;10.63;88.28
84108;BME280;74203;50.730;1.626;2023-11-21T05:34:02;100442.09;;;10.66;88.18
84108;BME280;74203;50.730;1.626;2023-11-21T05:36:12;100433.37;;;10.58;88.34
84108;BME280;74203;50.730;1.626;2023-11-21T05:38:19;100439.16;;;10.48;88.54
84108;BME280;74203;50.730;1.626;2023-11-21T05:40:26;100444.59;;;10.68;87.86
84108;BME280;74203;50.730;1.626;2023-11-21T05:42:34;100454.53;;;10.48;88.33
84108;BME280;74203;50.730;1.626;2023-11-21T05:44:43;100461.78;;;10.47;88.27
84108;BME280;74203;50.730;1.626;2023-11-21T05:46:51;100460.37;;;10.71;88.05
84108;BME280;74203;50.730;1.626;2023-11-21T05:48:58;100467.00;;;10.62;88.06
84108;BME280;74203;50.730;1.626;2023-11-21T05:51:06;100465.78;;;10.71;87.42
84108;BME280;74203;50.730;1.626;2023-11-21T05:53:13;100464.09;;;10.70;87.34
84108;BME280;74203;50.730;1.626;2023-11-21T05:55:22;100480.28;;;10.70;87.67
84108;BME280;74203;50.730;1.626;2023-11-21T05:57:29;100475.34;;;10.74;87.08
84108;BME280;74203;50.730;1.626;2023-11-21T05:59:37;100475.53;;;10.72;86.95
84108;BME280;74203;50.730;1.626;2023-11-21T06:01:45;100480.53;;;10.82;86.38
84108;BME280;74203;50.730;1.626;2023-11-21T06:03:52;100485.53;;;10.85;86.20
84108;BME280;74203;50.730;1.626;2023-11-21T06:05:59;100490.28;;;10.76;86.76
84108;BME280;74203;50.730;1.626;2023-11-21T06:08:07;100484.47;;;10.66;87.40
84108;BME280;74203;50.730;1.626;2023-11-21T06:10:15;100493.78;;;10.70;87.08
84108;BME280;74203;50.730;1.626;2023-11-21T06:12:22;100497.78;;;10.81;87.04
84108;BME280;74203;50.730;1.626;2023-11-21T06:14:29;100498.19;;;10.71;87.43
84108;BME280;74203;50.730;1.626;2023-11-21T06:16:37;100510.66;;;10.72;86.87
84108;BME280;74203;50.730;1.626;2023-11-21T06:18:44;100504.00;;;10.81;86.85
84108;BME280;74203;50.730;1.626;2023-11-21T06:20:51;100504.00;;;10.75;87.08
84108;BME280;74203;50.730;1.626;2023-11-21T06:22:59;100505.63;;;10.69;87.25
84108;BME280;74203;50.730;1.626;2023-11-21T06:25:08;100503.97;;;10.68;87.88
84108;BME280;74203;50.730;1.626;2023-11-21T06:27:16;100502.34;;;10.80;86.83
84108;BME280;74203;50.730;1.626;2023-11-21T06:29:23;100512.72;;;10.83;87.12
84108;BME280;74203;50.730;1.626;2023-11-21T06:31:31;100526.84;;;10.72;88.18
84108;BME280;74203;50.730;1.626;2023-11-21T06:33:38;100536.00;;;10.71;88.32
84108;BME280;74203;50.730;1.626;2023-11-21T06:35:45;100531.59;;;10.70;88.21
84108;BME280;74203;50.730;1.626;2023-11-21T06:37:52;100537.84;;;10.71;88.39
84108;BME280;74203;50.730;1.626;2023-11-21T06:40:01;100536.19;;;10.89;87.38
84108;BME280;74203;50.730;1.626;2023-11-21T06:42:09;100538.06;;;10.82;87.11
84108;BME280;74203;50.730;1.626;2023-11-21T06:44:17;100546.97;;;10.70;87.62
84108;BME280;74203;50.730;1.626;2023-11-21T06:46:24;100562.53;;;10.61;88.18
84108;BME280;74203;50.730;1.626;2023-11-21T06:48:31;100547.19;;;10.68;88.13
84108;BME280;74203;50.730;1.626;2023-11-21T06:50:38;100559.25;;;10.72;88.05
84108;BME280;74203;50.730;1.626;2023-11-21T06:52:46;100550.50;;;10.57;88.26
84108;BME280;74203;50.730;1.626;2023-11-21T06:54:53;100554.66;;;10.66;88.14
84108;BME280;74203;50.730;1.626;2023-11-21T06:57:01;100554.47;;;10.74;88.29
84108;BME280;74203;50.730;1.626;2023-11-21T06:59:08;100561.31;;;10.70;88.79
84108;BME280;74203;50.730;1.626;2023-11-21T07:01:16;100568.34;;;10.58;88.93
84108;BME280;74203;50.730;1.626;2023-11-21T07:03:23;100563.72;;;10.38;89.96
84108;BME280;74203;50.730;1.626;2023-11-21T07:05:31;100567.53;;;10.64;89.70
84108;BME280;74203;50.730;1.626;2023-11-21T07:07:38;100576.66;;;10.63;89.04
84108;BME280;74203;50.730;1.626;2023-11-21T07:09:45;100584.56;;;10.58;89.39
84108;BME280;74203;50.730;1.626;2023-11-21T07:11:53;100586.44;;;10.64;89.21
84108;BME280;74203;50.730;1.626;2023-11-21T07:14:00;100593.44;;;10.52;89.35
84108;BME280;74203;50.730;1.626;2023-11-21T07:16:08;100590.34;;;10.55;89.42
84108;BME280;74203;50.730;1.626;2023-11-21T07:18:16;100580.44;;;10.82;88.52
84108;BME280;74203;50.730;1.626;2023-11-21T07:20:23;100592.03;;;10.69;88.77
84108;BME280;74203;50.730;1.626;2023-11-21T07:22:31;100595.78;;;10.68;88.83
84108;BME280;74203;50.730;1.626;2023-11-21T07:24:39;100590.81;;;10.65;88.77
84108;BME280;74203;50.730;1.626;2023-11-21T07:26:46;100597.06;;;10.79;88.40
84108;BME280;74203;50.730;1.626;2023-11-21T07:28:54;100597.78;;;10.46;89.99
84108;BME280;74203;50.730;1.626;2023-11-21T07:31:01;100603.59;;;10.50;90.28
84108;BME280;74203;50.730;1.626;2023-11-21T07:33:08;100597.78;;;10.46;90.33
84108;BME280;74203;50.730;1.626;2023-11-21T07:35:16;100588.00;;;10.38;89.96
84108;BME280;74203;50.730;1.626;2023-11-21T07:37:23;100596.72;;;10.41;89.68
84108;BME280;74203;50.730;1.626;2023-11-21T07:39:30;100601.56;;;10.58;88.94
84108;BME280;74203;50.730;1.626;2023-11-21T07:41:38;100603.97;;;10.40;89.43
84108;BME280;74203;50.730;1.626;2023-11-21T07:43:46;100598.19;;;10.36;89.49
84108;BME280;74203;50.730;1.626;2023-11-21T07:45:53;100603.22;;;10.53;89.14
84108;BME280;74203;50.730;1.626;2023-11-21T07:48:00;100609.03;;;10.56;88.94
84108;BME280;74203;50.730;1.626;2023-11-21T07:50:10;100608.59;;;10.46;89.24
84108;BME280;74203;50.730;1.626;2023-11-21T07:52:17;100616.84;;;10.38;89.11
84108;BME280;74203;50.730;1.626;2023-11-21T07:54:25;100617.31;;;10.55;88.94
84108;BME280;74203;50.730;1.626;2023-11-21T07:56:32;100611.97;;;10.68;88.58
84108;BME280;74203;50.730;1.626;2023-11-21T07:58:39;100615.31;;;10.63;88.54
84108;BME280;74203;50.730;1.626;2023-11-21T08:00:47;100622.78;;;10.68;88.20
84108;BME280;74203;50.730;1.626;2023-11-21T08:02:54;100626.66;;;10.46;88.89
84108;BME280;74203;50.730;1.626;2023-11-21T08:05:02;100641.63;;;10.55;89.18
84108;BME280;74203;50.730;1.626;2023-11-21T08:07:10;100646.31;;;10.81;88.42
84108;BME280;74203;50.730;1.626;2023-11-21T08:09:18;100661.00;;;10.65;88.96
84108;BME280;74203;50.730;1.626;2023-11-21T08:11:25;100657.28;;;10.73;88.92
84108;BME280;74203;50.730;1.626;2023-11-21T08:13:33;100658.16;;;10.86;88.18
84108;BME280;74203;50.730;1.626;2023-11-21T08:15:40;100668.53;;;10.83;88.26
84108;BME280;74203;50.730;1.626;2023-11-21T08:17:48;100688.84;;;10.72;88.44
84108;BME280;74203;50.730;1.626;2023-11-21T08:19:56;100686.84;;;10.87;88.19
84108;BME280;74203;50.730;1.626;2023-11-21T08:22:03;100688.66;;;10.74;88.29
84108;BME280;74203;50.730;1.626;2023-11-21T08:24:11;100699.31;;;10.95;87.83
84108;BME280;74203;50.730;1.626;2023-11-21T08:26:20;100698.09;;;10.98;87.52
84108;BME280;74203;50.730;1.626;2023-11-21T08:28:28;100705.41;;;11.17;87.05
84108;BME280;74203;50.730;1.626;2023-11-21T08:30:36;100707.22;;;10.97;87.18
84108;BME280;74203;50.730;1.626;2023-11-21T08:32:44;100709.50;;;10.93;87.65
84108;BME280;74203;50.730;1.626;2023-11-21T08:34:51;100707.87;;;10.99;87.43
84108;BME280;74203;50.730;1.626;2023-11-21T08:36:59;100717.16;;;10.89;86.74
84108;BME280;74203;50.730;1.626;2023-11-21T08:39:06;100723.28;;;11.05;86.63
84108;BME280;74203;50.730;1.626;2023-11-21T08:41:14;100717.03;;;10.98;86.14
84108;BME280;74203;50.730;1.626;2023-11-21T08:43:21;100720.09;;;10.94;86.17
84108;BME280;74203;50.730;1.626;2023-11-21T08:45:29;100720.72;;;10.97;85.78
84108;BME280;74203;50.730;1.626;2023-11-21T08:47:36;100727.84;;;11.04;85.52
84108;BME280;74203;50.730;1.626;2023-11-21T08:49:43;100727.22;;;11.09;85.58
84108;BME280;74203;50.730;1.626;2023-11-21T08:51:51;100734.22;;;10.97;85.83
84108;BME280;74203;50.730;1.626;2023-11-21T08:53:58;100735.44;;;10.87;86.44
84108;BME280;74203;50.730;1.626;2023-11-21T08:56:06;100744.94;;;10.77;86.91
84108;BME280;74203;50.730;1.626;2023-11-21T08:58:14;100741.34;;;10.98;86.42
84108;BME280;74203;50.730;1.626;2023-11-21T09:00:21;100748.84;;;11.09;85.51
84108;BME280;74203;50.730;1.626;2023-11-21T09:02:30;100761.50;;;11.02;85.61
84108;BME280;74203;50.730;1.626;2023-11-21T09:04:37;100758.78;;;11.02;85.44
84108;BME280;74203;50.730;1.626;2023-11-21T09:06:46;100767.94;;;11.01;85.40
84108;BME280;74203;50.730;1.626;2023-11-21T09:08:54;100774.12;;;10.94;85.92
84108;BME280;74203;50.730;1.626;2023-11-21T09:11:01;100779.94;;;10.91;85.50
84108;BME280;74203;50.730;1.626;2023-11-21T09:13:08;100778.78;;;11.14;84.12
84108;BME280;74203;50.730;1.626;2023-11-21T09:15:16;100779.66;;;11.21;84.53
84108;BME280;74203;50.730;1.626;2023-11-21T09:17:23;100786.69;;;11.15;83.88
84108;BME280;74203;50.730;1.626;2023-11-21T09:19:32;100776.72;;;11.16;84.35
84108;BME280;74203;50.730;1.626;2023-11-21T09:21:39;100793.72;;;11.10;84.23
84108;BME280;74203;50.730;1.626;2023-11-21T09:23:48;100784.62;;;11.17;84.32
84108;BME280;74203;50.730;1.626;2023-11-21T09:25:55;100789.69;;;11.34;84.00
84108;BME280;74203;50.730;1.626;2023-11-21T09:28:02;100793.59;;;11.18;84.37
84108;BME280;74203;50.730;1.626;2023-11-21T09:30:12;100804.94;;;11.07;83.87
84108;BME280;74203;50.730;1.626;2023-11-21T09:32:19;100808.28;;;11.09;83.81
84108;BME280;74203;50.730;1.626;2023-11-21T09:34:28;100804.59;;;11.23;83.62
84108;BME280;74203;50.730;1.626;2023-11-21T09:36:36;100828.78;;;11.31;83.00
84108;BME280;74203;50.730;1.626;2023-11-21T09:38:46;100820.53;;;11.53;82.18
84108;BME280;74203;50.730;1.626;2023-11-21T09:40:54;100820.50;;;11.39;81.95
84108;BME280;74203;50.730;1.626;2023-11-21T09:43:02;100824.66;;;11.42;81.46
84108;BME280;74203;50.730;1.626;2023-11-21T09:45:21;100822.16;;;11.40;83.12
84108;BME280;74203;50.730;1.626;2023-11-21T09:47:32;100833.25;;;11.59;84.20
84108;BME280;74203;50.730;1.626;2023-11-21T09:49:42;100824.19;;;11.32;84.37
84108;BME280;74203;50.730;1.626;2023-11-21T09:51:51;100827.78;;;11.45;82.83
84108;BME280;74203;50.730;1.626;2023-11-21T09:54:02;100833.84;;;11.54;81.93
84108;BME280;74203;50.730;1.626;2023-11-21T09:56:12;100847.63;;;11.66;81.64
84108;BME280;74203;50.730;1.626;2023-11-21T09:58:21;100840.50;;;11.65;81.72
84108;BME280;74203;50.730;1.626;2023-11-21T10:00:29;100837.63;;;11.66;82.35
84108;BME280;74203;50.730;1.626;2023-11-21T10:02:38;100843.87;;;11.67;83.42
84108;BME280;74203;50.730;1.626;2023-11-21T10:04:46;100842.62;;;11.76;82.76
84108;BME280;74203;50.730;1.626;2023-11-21T10:06:54;100846.50;;;12.08;81.93
84108;BME280;74203;50.730;1.626;2023-11-21T10:09:02;100846.03;;;11.91;83.04
84108;BME280;74203;50.730;1.626;2023-11-21T10:11:11;100845.47;;;11.48;84.70
84108;BME280;74203;50.730;1.626;2023-11-21T10:13:20;100866.12;;;11.21;85.86
84108;BME280;74203;50.730;1.626;2023-11-21T10:15:28;100856.38;;;11.20;86.54
84108;BME280;74203;50.730;1.626;2023-11-21T10:17:38;100860.00;;;11.40;86.27
84108;BME280;74203;50.730;1.626;2023-11-21T10:19:49;100873.41;;;11.20;86.23
84108;BME280;74203;50.730;1.626;2023-11-21T10:21:57;100874.88;;;11.23;85.95
84108;BME280;74203;50.730;1.626;2023-11-21T10:24:07;100879.91;;;11.33;85.52
84108;BME280;74203;50.730;1.626;2023-11-21T10:26:15;100874.88;;;11.23;85.85
84108;BME280;74203;50.730;1.626;2023-11-21T10:28:23;100880.56;;;11.00;86.43
84108;BME280;74203;50.730;1.626;2023-11-21T10:30:35;100878.06;;;11.33;85.77
84108;BME280;74203;50.730;1.626;2023-11-21T10:32:43;100884.66;;;11.31;85.99
84108;BME280;74203;50.730;1.626;2023-11-21T10:35:00;100881.97;;;11.31;85.68
84108;BME280;74203;50.730;1.626;2023-11-21T10:37:15;100898.53;;;11.14;85.89
84108;BME280;74203;50.730;1.626;2023-11-21T10:39:24;100876.59;;;11.37;85.10
84108;BME280;74203;50.730;1.626;2023-11-21T10:41:31;100889.75;;;11.47;84.35
84108;BME280;74203;50.730;1.626;2023-11-21T10:43:40;100896.62;;;11.49;84.36
84108;BME280;74203;50.730;1.626;2023-11-21T10:45:48;100889.06;;;11.32;85.06
84108;BME280;74203;50.730;1.626;2023-11-21T10:47:55;100887.63;;;11.36;85.52
84108;BME280;74203;50.730;1.626;2023-11-21T10:50:04;100887.34;;;11.24;85.47
84108;BME280;74203;50.730;1.626;2023-11-21T10:52:12;100882.19;;;11.29;85.80
84108;BME280;74203;50.730;1.626;2023-11-21T10:54:22;100888.50;;;11.49;85.22
84108;BME280;74203;50.730;1.626;2023-11-21T10:56:31;100895.34;;;11.39;85.42
84108;BME280;74203;50.730;1.626;2023-11-21T10:58:39;100896.25;;;11.53;85.79
84108;BME280;74203;50.730;1.626;2023-11-21T11:00:47;100890.41;;;11.56;85.39
84108;BME280;74203;50.730;1.626;2023-11-21T11:02:56;100884.81;;;11.64;85.31
84108;BME280;74203;50.730;1.626;2023-11-21T11:05:06;100895.31;;;11.32;86.79
84108;BME280;74203;50.730;1.626;2023-11-21T11:07:16;100881.63;;;11.40;86.24
84108;BME280;74203;50.730;1.626;2023-11-21T11:09:24;100884.06;;;11.29;86.36